Time;durP1;ratioP1;P1;durP2;ratioP2;P2;SDS_P1;SDS_P2;PMS_P1;PMS_P2;Temp;Humidity;BMP_temperature;BMP_pressure;BME280_temperature;BME280_humidity;BME280_pressure;Samples;Min_cycle;Max_cycle;Signal;HPM_P1;HPM_P2
2023/04/01 00:02:24;;;;;;;5.20;1.10;;;9.20;33.70;;;;;;5078370;28;21207;-68
2023/04/01 00:04:50;;;;;;;5.30;0.70;;;9.30;33.80;;;;;;5078337;28;20467;-68
2023/04/01 00:07:17;;;;;;;7.80;1.20;;;9.30;33.70;;;;;;5075879;28;20559;-68
2023/04/01 00:09:44;;;;;;;3.67;1.10;;;9.20;33.60;;;;;;5077700;28;20456;-68
2023/04/01 00:12:11;;;;;;;5.80;1.77;;;9.30;33.80;;;;;;5074200;28;20919;-68
2023/04/01 00:14:37;;;;;;;3.70;0.70;;;9.20;33.70;;;;;;5078706;28;20460;-68
2023/04/01 00:17:05;;;;;;;6.53;1.03;;;9.20;33.70;;;;;;5074318;28;20749;-68
2023/04/01 00:19:32;;;;;;;4.17;0.80;;;9.20;33.90;;;;;;5083958;28;20463;-68
2023/04/01 00:21:59;;;;;;;5.10;0.90;;;9.20;34.10;;;;;;5080487;28;20539;-68
2023/04/01 00:24:26;;;;;;;4.43;1.13;;;9.10;34.20;;;;;;5080851;28;20459;-68
2023/04/01 00:26:53;;;;;;;4.50;0.90;;;9.10;34.20;;;;;;5081205;28;20479;-66
2023/04/01 00:29:19;;;;;;;6.83;1.20;;;9.10;34.20;;;;;;5081241;28;20961;-67
2023/04/01 00:31:48;;;;;;;5.40;0.80;;;9.10;34.10;;;;;;5085737;28;20472;-69
2023/04/01 00:34:16;;;;;;;4.83;0.93;;;9.10;34.20;;;;;;5079960;28;20444;-69
2023/04/01 00:36:42;;;;;;;5.60;0.73;;;9.10;34.20;;;;;;5080633;28;20480;-66
2023/04/01 00:39:09;;;;;;;5.10;0.80;;;9.10;34.30;;;;;;5079444;28;21038;-69
2023/04/01 00:41:36;;;;;;;4.60;0.90;;;9.10;34.40;;;;;;5081682;28;20584;-69
2023/04/01 00:44:17;;;;;;;8.50;1.10;;;9.10;34.50;;;;;;5082804;28;20464;-69
2023/04/01 00:46:44;;;;;;;4.10;0.70;;;9.00;35.40;;;;;;5078347;28;20476;-69
2023/04/01 00:49:11;;;;;;;5.37;1.10;;;9.00;34.80;;;;;;5083002;28;20490;-68
2023/04/01 00:51:41;;;;;;;4.13;0.73;;;9.00;34.80;;;;;;5079051;28;20837;-69
2023/04/01 00:54:09;;;;;;;5.50;0.93;;;9.00;34.60;;;;;;5078986;28;20474;-69
2023/04/01 00:56:40;;;;;;;4.63;0.87;;;8.90;34.70;;;;;;5080364;28;20459;-68
2023/04/01 00:59:10;;;;;;;4.63;0.70;;;8.90;34.80;;;;;;5083359;28;20472;-69
2023/04/01 01:01:38;;;;;;;4.97;0.90;;;8.80;34.80;;;;;;5082422;28;20541;-69
2023/04/01 01:04:05;;;;;;;4.97;0.80;;;8.80;34.80;;;;;;5081169;28;20453;-69
2023/04/01 01:06:49;;;;;;;4.50;0.80;;;8.80;34.90;;;;;;5082036;28;20480;-69
2023/04/01 01:09:31;;;;;;;4.47;0.90;;;8.80;35.10;;;;;;5082246;28;20467;-68
2023/04/01 01:12:06;;;;;;;13.53;1.40;;;8.80;34.90;;;;;;5086143;28;21011;-68
2023/04/01 01:14:46;;;;;;;4.83;0.90;;;8.70;35.00;;;;;;5080179;28;20484;-68
2023/04/01 01:17:19;;;;;;;4.97;0.83;;;8.70;35.10;;;;;;5080699;28;20483;-68
2023/04/01 01:20:21;;;;;;;3.50;0.60;;;8.60;35.20;;;;;;5081009;28;20452;-67
2023/04/01 01:23:25;;;;;;;4.27;1.00;;;8.60;35.60;;;;;;5066376;28;20463;-68
2023/04/01 01:26:05;;;;;;;4.90;0.87;;;8.60;35.60;;;;;;5078138;28;20574;-68
2023/04/01 01:28:45;;;;;;;4.10;0.77;;;8.60;35.80;;;;;;5079457;28;20841;-69
2023/04/01 01:31:21;;;;;;;7.90;0.73;;;8.60;35.60;;;;;;5079406;28;20474;-68
2023/04/01 01:34:03;;;;;;;4.30;0.50;;;8.60;35.40;;;;;;5081327;28;20467;-67
2023/04/01 01:36:35;;;;;;;3.63;0.60;;;8.60;35.70;;;;;;5076746;28;20459;-68
2023/04/01 01:39:02;;;;;;;4.20;0.60;;;8.60;35.40;;;;;;5081911;28;20766;-68
2023/04/01 01:41:31;;;;;;;6.00;1.00;;;8.60;35.20;;;;;;5081063;28;20456;-67
2023/04/01 01:44:00;;;;;;;5.10;0.90;;;8.60;35.30;;;;;;5080969;28;20977;-68
2023/04/01 01:46:29;;;;;;;4.33;0.70;;;8.60;35.40;;;;;;5078457;28;20571;-68
2023/04/01 01:48:57;;;;;;;3.93;0.70;;;8.60;35.40;;;;;;5088793;22;21019;-64
2023/04/01 01:51:27;;;;;;;4.73;1.00;;;8.50;35.50;;;;;;5079213;28;20457;-62
2023/04/01 01:53:55;;;;;;;5.80;0.80;;;8.40;35.60;;;;;;5077185;28;20914;-63
2023/04/01 01:56:27;;;;;;;4.23;0.77;;;8.40;35.90;;;;;;5072953;28;21190;-63
2023/04/01 01:58:57;;;;;;;4.13;0.60;;;8.40;36.00;;;;;;5077384;28;20487;-62
2023/04/01 02:01:27;;;;;;;3.90;0.80;;;8.30;36.00;;;;;;5074857;28;20732;-63
2023/04/01 02:03:55;;;;;;;3.60;0.53;;;8.30;36.10;;;;;;5075912;28;20457;-62
2023/04/01 02:06:24;;;;;;;3.50;0.60;;;8.30;36.20;;;;;;5079384;28;20475;-63
2023/04/01 02:08:53;;;;;;;3.87;0.70;;;8.30;36.10;;;;;;5081011;28;20481;-63
2023/04/01 02:11:28;;;;;;;3.40;0.40;;;8.30;36.10;;;;;;5079554;28;20462;-62
2023/04/01 02:13:57;;;;;;;3.30;0.40;;;8.30;36.00;;;;;;5072859;28;20460;-67
2023/04/01 02:16:29;;;;;;;5.07;0.50;;;8.30;36.10;;;;;;5074949;28;20519;-64
2023/04/01 02:18:58;;;;;;;3.73;0.50;;;8.20;36.00;;;;;;5074886;28;20473;-63
2023/04/01 02:21:28;;;;;;;3.90;0.60;;;8.20;36.00;;;;;;5081410;28;20455;-63
2023/04/01 02:23:57;;;;;;;6.23;1.03;;;8.10;36.30;;;;;;5077303;28;20464;-64
2023/04/01 02:26:26;;;;;;;4.57;0.60;;;8.10;36.20;;;;;;5080619;28;20460;-63
2023/04/01 02:28:54;;;;;;;4.00;0.47;;;8.10;36.20;;;;;;5079474;28;20573;-64
2023/04/01 02:31:22;;;;;;;3.50;0.40;;;8.10;36.20;;;;;;5080426;28;21030;-62
2023/04/01 02:33:49;;;;;;;4.23;0.70;;;8.10;36.10;;;;;;5077324;28;20466;-62
2023/04/01 02:36:17;;;;;;;4.17;0.50;;;8.10;36.00;;;;;;5076611;28;20806;-63
2023/04/01 02:38:46;;;;;;;4.50;0.40;;;8.10;35.90;;;;;;5080455;28;20930;-62
2023/04/01 02:41:13;;;;;;;4.80;0.40;;;8.00;35.80;;;;;;5081215;28;20472;-62
2023/04/01 02:43:41;;;;;;;4.50;0.50;;;8.10;35.90;;;;;;5080444;28;20464;-64
2023/04/01 02:46:08;;;;;;;3.53;0.40;;;8.10;36.00;;;;;;5074827;28;20665;-61
2023/04/01 02:48:35;;;;;;;4.23;0.50;;;8.10;36.00;;;;;;5096089;28;20479;-61
2023/04/01 02:51:02;;;;;;;4.17;0.40;;;8.20;36.40;;;;;;5089102;28;20457;-62
2023/04/01 02:53:28;;;;;;;4.03;0.40;;;8.20;36.60;;;;;;5080938;28;20468;-62
2023/04/01 02:55:55;;;;;;;5.43;0.70;;;8.20;36.70;;;;;;5081205;28;20979;-62
2023/04/01 02:58:22;;;;;;;3.57;0.50;;;8.20;36.70;;;;;;5077585;28;20473;-64
2023/04/01 03:00:50;;;;;;;3.50;0.50;;;8.10;36.80;;;;;;5074849;28;20476;-63
2023/04/01 03:03:17;;;;;;;3.73;0.50;;;8.10;36.80;;;;;;5082422;28;20457;-63
2023/04/01 03:05:43;;;;;;;5.50;0.80;;;8.10;36.60;;;;;;5078465;28;20465;-63
2023/04/01 03:08:11;;;;;;;3.40;0.40;;;8.10;36.80;;;;;;5075003;28;20722;-62
2023/04/01 03:10:38;;;;;;;3.30;0.40;;;8.10;36.90;;;;;;5075505;28;20456;-63
2023/04/01 03:13:06;;;;;;;4.37;0.40;;;8.10;37.00;;;;;;5073455;28;20476;-63
2023/04/01 03:15:32;;;;;;;3.30;0.40;;;8.10;36.90;;;;;;5077138;28;20489;-63
2023/04/01 03:18:00;;;;;;;3.47;0.40;;;8.10;37.00;;;;;;5078408;28;20461;-63
2023/04/01 03:20:27;;;;;;;3.50;0.50;;;8.10;37.50;;;;;;5078342;28;20920;-63
2023/04/01 03:22:54;;;;;;;3.70;0.40;;;8.10;37.30;;;;;;5075559;28;20468;-63
2023/04/01 03:25:21;;;;;;;3.37;0.40;;;8.10;37.50;;;;;;5075420;28;20456;-64
2023/04/01 03:27:47;;;;;;;6.30;0.77;;;8.10;37.80;;;;;;5073506;28;20480;-64
2023/04/01 03:30:14;;;;;;;3.77;0.50;;;8.10;38.00;;;;;;5077932;28;20904;-64
2023/04/01 03:32:41;;;;;;;3.63;0.50;;;8.10;38.90;;;;;;5077446;28;20551;-63
2023/04/01 03:35:10;;;;;;;4.27;0.60;;;8.10;38.50;;;;;;5081186;28;20469;-63
2023/04/01 03:37:37;;;;;;;3.37;0.43;;;8.10;38.80;;;;;;5074254;28;20457;-63
2023/04/01 03:40:04;;;;;;;3.40;0.50;;;8.10;38.90;;;;;;5076712;28;20481;-64
2023/04/01 03:42:32;;;;;;;3.43;0.50;;;8.20;39.10;;;;;;5076996;28;21219;-63
2023/04/01 03:44:58;;;;;;;3.47;0.60;;;8.20;39.20;;;;;;5078443;28;20463;-64
2023/04/01 03:47:25;;;;;;;3.60;0.50;;;8.20;39.10;;;;;;5079918;28;20480;-64
2023/04/01 03:49:52;;;;;;;3.80;0.60;;;8.20;39.00;;;;;;5079286;28;20864;-64
2023/04/01 03:52:20;;;;;;;3.77;0.50;;;8.20;39.30;;;;;;5073143;28;20467;-63
2023/04/01 03:54:47;;;;;;;3.40;0.60;;;8.20;39.40;;;;;;5077607;28;20475;-62
2023/04/01 03:57:14;;;;;;;3.70;0.70;;;8.20;39.30;;;;;;5077712;28;20449;-64
2023/04/01 03:59:40;;;;;;;3.50;0.50;;;8.30;39.30;;;;;;5080421;28;20488;-63
2023/04/01 04:02:07;;;;;;;4.17;0.60;;;8.30;39.50;;;;;;5074372;28;20586;-64
2023/04/01 04:04:35;;;;;;;4.80;0.60;;;8.30;39.50;;;;;;5075832;28;20467;-63
2023/04/01 04:07:02;;;;;;;3.70;0.63;;;8.30;39.60;;;;;;5075316;28;20460;-64
2023/04/01 04:09:31;;;;;;;4.13;0.80;;;8.30;39.70;;;;;;5079380;28;20476;-64
2023/04/01 04:11:58;;;;;;;3.60;0.60;;;8.30;39.50;;;;;;5080238;28;20463;-62
2023/04/01 04:14:25;;;;;;;3.33;0.60;;;8.40;39.40;;;;;;5073279;28;20973;-63
2023/04/01 04:16:52;;;;;;;3.60;0.70;;;8.40;39.50;;;;;;5079376;28;20459;-63
2023/04/01 04:19:19;;;;;;;3.90;0.63;;;8.40;39.40;;;;;;5078856;28;20519;-64
2023/04/01 04:21:45;;;;;;;3.53;0.57;;;8.40;39.40;;;;;;5077914;28;20463;-64
2023/04/01 04:24:12;;;;;;;6.10;0.70;;;8.40;39.40;;;;;;5078013;28;20984;-65
2023/04/01 04:26:40;;;;;;;3.60;0.60;;;8.40;39.40;;;;;;5071049;28;20491;-63
2023/04/01 04:29:07;;;;;;;5.93;0.70;;;8.40;39.30;;;;;;5076530;28;20480;-63
2023/04/01 04:31:34;;;;;;;4.47;0.80;;;8.40;39.10;;;;;;5077119;28;20481;-63
2023/04/01 04:34:01;;;;;;;4.37;0.73;;;8.50;38.60;;;;;;5079412;28;20453;-63
2023/04/01 04:36:28;;;;;;;4.07;0.67;;;8.50;38.60;;;;;;5077723;28;20485;-63
2023/04/01 04:38:54;;;;;;;4.80;0.90;;;8.50;38.50;;;;;;5072433;28;20481;-63
2023/04/01 04:41:22;;;;;;;4.80;0.80;;;8.40;38.30;;;;;;5079043;28;20460;-65
2023/04/01 04:43:55;;;;;;;3.50;0.97;;;8.50;38.40;;;;;;5076129;28;20509;-63
2023/04/01 04:46:23;;;;;;;3.70;0.90;;;8.50;38.20;;;;;;5075130;28;20460;-63
2023/04/01 04:48:50;;;;;;;4.27;0.50;;;8.50;38.10;;;;;;5074753;28;20491;-63
2023/04/01 04:51:19;;;;;;;7.73;0.83;;;8.50;37.90;;;;;;5072906;28;20469;-64
2023/04/01 04:53:47;;;;;;;4.63;1.17;;;8.50;37.70;;;;;;5073080;28;20979;-62
2023/04/01 04:56:17;;;;;;;3.97;0.93;;;8.40;37.60;;;;;;5074206;28;20463;-63
2023/04/01 04:58:44;;;;;;;3.60;0.50;;;8.40;37.40;;;;;;5072725;28;20566;-63
2023/04/01 05:01:14;;;;;;;3.97;0.60;;;8.30;37.30;;;;;;5075152;28;20504;-63
2023/04/01 05:03:42;;;;;;;3.80;0.70;;;8.30;37.40;;;;;;5070222;28;20494;-63
2023/04/01 05:06:10;;;;;;;6.47;1.43;;;8.30;37.50;;;;;;5077053;28;20471;-63
2023/04/01 05:08:39;;;;;;;3.70;0.80;;;8.30;37.30;;;;;;5078939;28;20479;-65
2023/04/01 05:11:10;;;;;;;4.73;0.67;;;8.30;37.30;;;;;;5079117;28;20463;-63
2023/04/01 05:13:37;;;;;;;4.27;0.60;;;8.30;37.10;;;;;;5079345;28;20888;-64
2023/04/01 05:16:04;;;;;;;3.60;0.70;;;8.30;36.90;;;;;;5077926;28;20479;-64
2023/04/01 05:18:32;;;;;;;4.43;0.60;;;8.30;36.80;;;;;;5074290;28;20943;-64
2023/04/01 05:20:59;;;;;;;4.00;0.50;;;8.30;36.90;;;;;;5078739;28;20465;-65
2023/04/01 05:23:25;;;;;;;3.63;0.70;;;8.30;36.70;;;;;;5080222;28;20464;-64
2023/04/01 05:25:53;;;;;;;4.23;0.60;;;8.40;36.70;;;;;;5079677;28;20994;-64
2023/04/01 05:28:20;;;;;;;5.57;0.70;;;8.40;36.70;;;;;;5080356;28;20488;-61
2023/04/01 05:30:47;;;;;;;3.60;0.50;;;8.40;36.70;;;;;;5082159;28;20507;-62
2023/04/01 05:33:14;;;;;;;3.60;0.60;;;8.50;36.50;;;;;;5075016;28;20468;-61
2023/04/01 05:35:42;;;;;;;3.60;0.50;;;8.50;36.70;;;;;;5079593;28;20467;-61
2023/04/01 05:38:09;;;;;;;4.27;0.73;;;8.50;36.80;;;;;;5078736;28;20599;-61
2023/04/01 05:40:36;;;;;;;5.17;0.90;;;8.50;36.80;;;;;;5078917;28;20468;-62
2023/04/01 05:43:03;;;;;;;4.87;0.80;;;8.50;36.90;;;;;;5078299;28;20457;-61
2023/04/01 05:45:29;;;;;;;3.67;0.50;;;8.50;36.90;;;;;;5076162;28;20456;-62
2023/04/01 05:47:56;;;;;;;5.30;0.73;;;8.50;36.80;;;;;;5079395;28;21142;-62
2023/04/01 05:50:23;;;;;;;4.13;0.50;;;8.60;36.80;;;;;;5082681;28;20487;-62
2023/04/01 05:52:51;;;;;;;4.47;0.90;;;8.60;36.70;;;;;;5077538;28;20463;-61
2023/04/01 05:55:18;;;;;;;4.90;0.90;;;8.70;36.70;;;;;;5079115;28;20468;-61
2023/04/01 05:57:46;;;;;;;5.30;0.87;;;8.70;36.40;;;;;;5083769;28;20452;-61
2023/04/01 06:00:14;;;;;;;4.13;0.50;;;8.80;36.10;;;;;;5089235;28;20461;-61
2023/04/01 06:02:41;;;;;;;4.47;0.60;;;8.80;36.30;;;;;;5090331;28;20449;-63
2023/04/01 06:05:15;;;;;;;5.90;1.10;;;8.80;35.70;;;;;;5081160;28;20499;-64
2023/04/01 06:07:42;;;;;;;5.90;1.63;;;8.90;35.50;;;;;;5079148;28;21073;-64
2023/04/01 06:10:15;;;;;;;4.83;0.67;;;8.90;35.40;;;;;;5082668;28;20457;-64
2023/04/01 06:12:52;;;;;;;4.43;0.83;;;9.00;34.90;;;;;;5083183;28;20462;-63
2023/04/01 06:15:26;;;;;;;4.13;0.73;;;8.90;35.00;;;;;;5079789;28;20459;-62
2023/04/01 06:18:12;;;;;;;4.10;0.87;;;9.00;34.80;;;;;;5079495;28;20468;-68
2023/04/01 06:20:48;;;;;;;3.87;0.70;;;9.10;34.80;;;;;;5061563;28;20591;-65
2023/04/01 06:23:28;;;;;;;3.80;0.67;;;9.60;32.90;;;;;;5079665;28;20514;-65
2023/04/01 06:26:07;;;;;;;4.03;0.40;;;10.10;30.90;;;;;;5080490;28;20990;-63
2023/04/01 06:28:53;;;;;;;5.90;1.30;;;10.70;29.10;;;;;;5074841;28;20479;-64
2023/04/01 06:31:40;;;;;;;4.00;0.67;;;11.40;25.50;;;;;;5071755;28;20483;-66
2023/04/01 06:34:27;;;;;;;4.73;0.50;;;11.40;23.30;;;;;;5077736;28;20551;-64
2023/04/01 06:37:13;;;;;;;4.23;0.70;;;11.30;23.80;;;;;;5076965;28;20455;-64
2023/04/01 06:40:04;;;;;;;4.07;0.63;;;11.40;23.00;;;;;;5074143;28;20488;-63
2023/04/01 06:42:48;;;;;;;4.10;0.60;;;12.00;22.50;;;;;;5075083;28;20495;-67
2023/04/01 06:45:26;;;;;;;3.50;0.50;;;13.20;19.10;;;;;;5077089;28;20468;-62
2023/04/01 06:48:04;;;;;;;3.50;0.50;;;13.80;16.80;;;;;;5080227;28;20467;-62
2023/04/01 06:50:37;;;;;;;4.07;0.40;;;13.90;16.00;;;;;;5075521;28;20473;-62
2023/04/01 06:53:12;;;;;;;4.20;0.50;;;14.70;14.60;;;;;;5073149;28;20475;-63
2023/04/01 06:55:45;;;;;;;3.60;0.60;;;14.80;13.50;;;;;;5073897;28;20463;-62
2023/04/01 06:58:20;;;;;;;3.40;0.50;;;14.30;14.00;;;;;;5078467;28;20911;-63
2023/04/01 07:00:51;;;;;;;4.23;0.50;;;13.80;15.20;;;;;;5077314;28;20471;-63
2023/04/01 07:03:23;;;;;;;4.10;0.60;;;13.20;15.90;;;;;;5080993;28;20457;-62
2023/04/01 07:05:50;;;;;;;4.10;0.47;;;12.80;17.10;;;;;;5080076;28;20904;-62
2023/04/01 07:08:22;;;;;;;4.37;0.53;;;12.50;17.90;;;;;;5077230;28;21008;-62
2023/04/01 07:10:54;;;;;;;4.27;0.70;;;12.30;18.60;;;;;;5076909;28;20536;-62
2023/04/01 07:13:26;;;;;;;3.20;0.33;;;12.00;19.30;;;;;;5080633;28;20530;-64
2023/04/01 07:16:11;;;;;;;6.33;0.77;;;11.90;19.70;;;;;;5076664;28;20469;-63
2023/04/01 07:18:42;;;;;;;3.20;0.40;;;11.70;20.30;;;;;;5073463;28;20483;-61
2023/04/01 07:21:20;;;;;;;5.23;0.60;;;11.50;20.80;;;;;;5073509;28;21017;-62
2023/04/01 07:23:48;;;;;;;5.73;0.70;;;11.30;21.50;;;;;;5072707;28;20468;-62
2023/04/01 07:26:18;;;;;;;5.53;0.70;;;11.20;22.20;;;;;;5081964;28;20861;-62
2023/04/01 07:28:47;;;;;;;4.03;0.60;;;11.20;22.60;;;;;;5072684;28;20815;-63
2023/04/01 07:31:24;;;;;;;3.50;0.47;;;11.10;23.10;;;;;;5076579;28;20853;-60
2023/04/01 07:33:58;;;;;;;4.03;0.50;;;11.00;23.40;;;;;;5076284;28;20479;-62
2023/04/01 07:36:31;;;;;;;4.77;0.60;;;11.00;23.30;;;;;;5073094;28;20795;-62
2023/04/01 07:39:09;;;;;;;5.20;0.60;;;11.10;23.30;;;;;;5081585;28;20473;-62
2023/04/01 07:41:50;;;;;;;5.00;0.60;;;11.20;23.10;;;;;;5076692;28;20460;-62
2023/04/01 07:44:25;;;;;;;6.33;0.70;;;11.20;22.60;;;;;;5076508;28;20457;-61
2023/04/01 07:47:03;;;;;;;3.27;0.60;;;11.00;23.00;;;;;;5072437;28;20819;-62
2023/04/01 07:49:40;;;;;;;3.37;0.53;;;11.00;23.70;;;;;;5080231;22;20524;-69
2023/04/01 07:52:14;;;;;;;3.80;0.70;;;10.90;23.90;;;;;;5057615;28;20453;-65
2023/04/01 07:54:49;;;;;;;4.33;0.80;;;10.90;24.20;;;;;;5057683;28;20469;-61
2023/04/01 07:57:22;;;;;;;4.17;0.60;;;10.90;24.40;;;;;;5058207;28;20457;-63
2023/04/01 07:59:59;;;;;;;4.67;0.60;;;10.90;24.10;;;;;;5053569;28;20479;-62
2023/04/01 08:02:38;;;;;;;3.57;0.47;;;10.80;23.40;;;;;;5057041;28;20481;-62
2023/04/01 08:05:15;;;;;;;4.70;1.13;;;10.70;23.60;;;;;;5054877;28;20864;-62
2023/04/01 08:07:51;;;;;;;3.83;0.70;;;10.70;24.10;;;;;;5054462;28;20503;-65
2023/04/01 08:10:23;;;;;;;3.57;0.70;;;10.70;24.40;;;;;;5061057;28;20484;-62
2023/04/01 08:13:04;;;;;;;3.40;0.30;;;10.60;24.50;;;;;;5049404;28;20496;-62
2023/04/01 08:15:39;;;;;;;3.93;0.60;;;10.60;24.60;;;;;;5055390;28;20556;-62
2023/04/01 08:18:15;;;;;;;3.40;0.47;;;10.60;24.50;;;;;;5050806;28;20462;-62
2023/04/01 08:20:46;;;;;;;4.70;0.53;;;10.50;24.70;;;;;;5054892;28;20488;-62
2023/04/01 08:23:16;;;;;;;4.80;0.53;;;10.50;24.80;;;;;;5057045;28;20452;-64
2023/04/01 08:25:49;;;;;;;4.13;0.60;;;10.60;25.50;;;;;;5058725;28;20457;-63
2023/04/01 08:28:21;;;;;;;4.63;0.53;;;10.60;25.30;;;;;;5051947;28;20469;-61
2023/04/01 08:30:53;;;;;;;4.10;0.70;;;10.60;24.60;;;;;;5057305;28;20481;-64
2023/04/01 08:33:24;;;;;;;3.53;0.50;;;10.60;24.30;;;;;;5059365;28;20454;-64
2023/04/01 08:35:57;;;;;;;3.20;0.47;;;10.60;24.50;;;;;;5053989;28;20460;-64
2023/04/01 08:38:30;;;;;;;4.40;0.50;;;10.70;24.40;;;;;;5053168;28;20457;-62
2023/04/01 08:41:08;;;;;;;3.73;0.80;;;10.80;23.90;;;;;;5054213;28;20496;-62
2023/04/01 08:44:00;;;;;;;3.20;0.40;;;10.90;24.20;;;;;;5056750;28;20460;-63
2023/04/01 08:47:00;;;;;;;4.80;0.50;;;10.90;23.90;;;;;;5060905;28;20457;-63
2023/04/01 08:49:47;;;;;;;4.33;0.43;;;11.00;23.40;;;;;;5062792;28;20478;-62
2023/04/01 08:52:31;;;;;;;6.50;0.53;;;11.10;23.10;;;;;;5058216;28;20836;-61
2023/04/01 08:55:35;;;;;;;5.20;0.40;;;11.10;23.00;;;;;;5062587;28;20953;-63
2023/04/01 08:58:19;;;;;;;3.20;0.50;;;11.10;23.40;;;;;;5057460;28;20465;-62
2023/04/01 09:00:53;;;;;;;4.03;0.53;;;11.10;22.70;;;;;;5042795;28;20477;-61
2023/04/01 09:03:38;;;;;;;3.43;0.40;;;11.10;22.50;;;;;;5052368;28;20456;-71
2023/04/01 09:06:34;;;;;;;4.23;0.43;;;11.00;23.30;;;;;;5056958;28;20584;-65
2023/04/01 09:09:22;;;;;;;4.83;0.70;;;11.00;23.10;;;;;;5063379;28;20706;-65
2023/04/01 09:12:07;;;;;;;3.50;0.60;;;11.00;23.40;;;;;;5063401;28;20457;-62
2023/04/01 09:14:50;;;;;;;5.00;0.40;;;11.00;24.50;;;;;;5059566;28;20464;-62
2023/04/01 09:17:59;;;;;;;3.83;0.50;;;11.00;24.90;;;;;;5062540;28;20464;-70
2023/04/01 09:20:43;;;;;;;3.50;0.50;;;11.00;25.10;;;;;;5043016;28;21329;-81
2023/04/01 09:23:42;;;;;;;4.13;0.53;;;10.90;25.70;;;;;;5058313;22;20495;-67
2023/04/01 09:26:24;;;;;;;4.00;0.50;;;10.70;25.90;;;;;;5061320;28;21331;-71
2023/04/01 09:29:01;;;;;;;3.90;0.50;;;10.70;26.20;;;;;;5071547;28;21006;-69
2023/04/01 09:31:54;;;;;;;4.00;0.50;;;10.70;27.30;;;;;;5074889;28;20567;-69
2023/04/01 09:34:31;;;;;;;4.17;0.43;;;10.60;26.90;;;;;;5069505;22;20585;-74
2023/04/01 09:37:18;;;;;;;3.97;0.53;;;10.60;27.40;;;;;;5079089;28;20456;-74
2023/04/01 09:40:03;;;;;;;3.77;0.40;;;10.60;26.90;;;;;;5086723;28;20459;-70
2023/04/01 09:42:43;;;;;;;3.73;0.60;;;10.50;26.90;;;;;;5071173;28;20959;-72
2023/04/01 09:45:23;;;;;;;3.30;0.50;;;10.50;26.80;;;;;;5084265;28;20516;-72
2023/04/01 09:48:04;;;;;;;3.80;0.40;;;10.50;26.10;;;;;;5077998;28;20883;-74
2023/04/01 09:50:41;;;;;;;3.47;0.43;;;10.50;25.90;;;;;;5085872;28;20483;-67
2023/04/01 09:53:19;;;;;;;3.50;0.60;;;10.40;26.40;;;;;;5086139;28;20532;-69
2023/04/01 09:56:43;;;;;;;3.80;0.50;;;10.40;26.70;;;;;;5082375;28;20464;-62
2023/04/01 09:59:56;;;;;;;4.20;0.60;;;10.40;27.10;;;;;;5082835;28;20460;-63
2023/04/01 10:02:56;;;;;;;3.50;0.50;;;10.30;27.10;;;;;;5042230;28;20840;-67
2023/04/01 10:06:10;;;;;;;6.50;0.80;;;10.20;27.40;;;;;;5059706;28;20560;-64
2023/04/01 10:09:08;;;;;;;3.57;0.40;;;10.20;27.90;;;;;;5003718;28;20452;-65
2023/04/01 10:12:19;;;;;;;3.50;0.60;;;10.20;27.50;;;;;;5077574;28;20463;-66
2023/04/01 10:15:17;;;;;;;3.10;0.30;;;10.20;27.40;;;;;;5080100;28;20490;-65
2023/04/01 10:18:19;;;;;;;3.77;0.77;;;10.20;27.90;;;;;;5077205;28;20915;-67
2023/04/01 10:21:14;;;;;;;3.10;0.30;;;10.20;27.90;;;;;;5086799;28;20922;-66
2023/04/01 10:24:01;;;;;;;3.20;0.40;;;10.20;27.90;;;;;;5048290;28;20861;-66
2023/04/01 10:27:07;;;;;;;3.50;0.50;;;10.20;27.00;;;;;;5076298;28;20464;-68
2023/04/01 10:30:21;;;;;;;3.30;0.50;;;10.30;27.60;;;;;;5081377;28;20480;-72
2023/04/01 10:33:18;;;;;;;3.27;0.40;;;10.40;27.40;;;;;;5078619;28;20472;-67
2023/04/01 10:41:10;;;;;;;3.70;1.23;;;10.50;25.80;;;;;;5578408;22;20637;-66
2023/04/01 10:44:09;;;;;;;5.40;1.87;;;10.60;26.30;;;;;;5063090;22;20869;-67
2023/04/01 10:47:07;;;;;;;3.70;1.17;;;10.60;26.20;;;;;;5073379;28;20463;-67
2023/04/01 10:50:00;;;;;;;4.00;1.33;;;10.70;26.00;;;;;;5060789;28;21034;-68
2023/04/01 10:53:18;;;;;;;4.47;0.50;;;10.70;25.20;;;;;;5062786;28;20468;-67
2023/04/01 10:56:16;;;;;;;3.23;0.43;;;10.80;25.60;;;;;;5062473;28;20536;-68
2023/04/01 10:59:16;;;;;;;4.20;0.60;;;10.90;25.50;;;;;;5067374;28;20461;-68
2023/04/01 11:02:14;;;;;;;3.50;0.90;;;10.90;25.90;;;;;;5067482;28;20984;-68
2023/04/01 11:05:30;;;;;;;3.50;0.40;;;10.90;25.20;;;;;;5055555;28;20468;-69
2023/04/01 11:08:26;;;;;;;3.93;0.90;;;10.80;25.30;;;;;;5062617;28;20473;-70
2023/04/01 11:11:28;;;;;;;4.00;1.13;;;10.80;26.30;;;;;;5069882;28;20485;-70
2023/04/01 11:14:32;;;;;;;3.30;0.60;;;10.90;26.40;;;;;;5089606;28;20449;-70
2023/04/01 11:17:35;;;;;;;3.30;0.47;;;10.90;25.50;;;;;;5085065;28;20437;-71
2023/04/01 11:20:29;;;;;;;3.40;0.53;;;11.00;25.90;;;;;;5090841;28;20468;-71
2023/04/01 11:23:29;;;;;;;3.40;0.60;;;11.00;25.30;;;;;;5086881;28;20457;-69
2023/04/01 11:26:10;;;;;;;3.40;0.40;;;11.00;26.20;;;;;;5090153;28;20715;-69
2023/04/01 11:29:07;;;;;;;5.93;0.50;;;11.00;25.90;;;;;;5065666;28;20457;-71
2023/04/01 11:31:46;;;;;;;3.10;0.33;;;10.90;25.50;;;;;;5068637;28;20484;-70
2023/04/01 11:34:36;;;;;;;3.10;0.40;;;10.80;26.20;;;;;;5077194;28;20471;-70
2023/04/01 11:37:12;;;;;;;4.53;0.50;;;10.70;26.80;;;;;;5078864;28;20465;-69
2023/04/01 11:39:47;;;;;;;3.80;0.40;;;10.60;26.90;;;;;;5069941;28;20837;-72
2023/04/01 11:42:23;;;;;;;3.57;0.80;;;10.60;28.00;;;;;;5057903;28;20469;-69
2023/04/01 11:45:00;;;;;;;3.67;0.40;;;10.60;28.60;;;;;;5066045;28;20540;-71
2023/04/01 11:47:51;;;;;;;3.50;0.40;;;10.50;28.90;;;;;;5065298;28;20897;-70
2023/04/01 11:50:27;;;;;;;3.50;0.77;;;10.50;29.40;;;;;;5062779;28;20488;-69
2023/04/01 11:53:10;;;;;;;3.30;0.53;;;10.40;29.50;;;;;;5060141;28;20463;-69
2023/04/01 11:55:51;;;;;;;3.60;0.90;;;10.40;29.70;;;;;;5057955;28;20472;-68
2023/04/01 11:58:37;;;;;;;7.60;1.23;;;10.30;30.10;;;;;;5060991;28;20484;-70
2023/04/01 12:01:22;;;;;;;4.43;1.30;;;10.40;30.70;;;;;;5062153;28;20480;-69
2023/04/01 12:04:34;;;;;;;3.37;0.83;;;10.40;30.20;;;;;;5060561;28;20462;-70
2023/04/01 12:07:09;;;;;;;4.90;1.27;;;10.40;30.10;;;;;;5061491;28;20461;-71
2023/04/01 12:09:43;;;;;;;3.43;0.80;;;10.40;30.70;;;;;;5075627;28;20480;-71
2023/04/01 12:12:18;;;;;;;3.33;0.50;;;10.40;31.20;;;;;;5074943;28;20798;-69
2023/04/01 12:15:01;;;;;;;3.40;0.60;;;10.50;30.80;;;;;;5060827;28;20472;-67
2023/04/01 12:17:35;;;;;;;3.60;0.70;;;10.60;30.90;;;;;;5054350;28;20515;-68
2023/04/01 12:20:29;;;;;;;3.90;0.70;;;10.70;30.20;;;;;;5060105;28;20479;-68
2023/04/01 12:23:11;;;;;;;3.30;0.60;;;10.90;30.90;;;;;;5060036;28;20468;-69
2023/04/01 12:26:05;;;;;;;3.50;0.67;;;11.00;30.30;;;;;;5063145;28;20476;-66
2023/04/01 12:28:46;;;;;;;3.30;0.60;;;11.10;30.00;;;;;;5058820;28;20538;-66
2023/04/01 12:31:36;;;;;;;5.00;1.90;;;11.10;28.90;;;;;;5068915;28;20485;-66
2023/04/01 12:34:52;;;;;;;17.77;10.83;;;11.10;29.20;;;;;;5064713;28;20873;-68
2023/04/01 12:37:27;;;;;;;4.77;1.80;;;11.10;29.50;;;;;;5064750;28;20672;-66
2023/04/01 12:40:30;;;;;;;3.30;0.50;;;11.10;28.70;;;;;;5069560;28;20473;-67
2023/04/01 12:43:06;;;;;;;4.77;0.80;;;11.20;29.00;;;;;;5068460;28;20487;-68
2023/04/01 12:45:33;;;;;;;4.07;0.70;;;11.40;29.10;;;;;;5066262;28;20457;-67
2023/04/01 12:48:24;;;;;;;3.30;0.60;;;11.50;28.60;;;;;;5070379;28;20453;-67
2023/04/01 12:51:20;;;;;;;3.63;0.67;;;11.60;27.10;;;;;;5069025;28;20492;-67
2023/04/01 12:54:23;;;;;;;3.87;0.70;;;11.70;27.30;;;;;;5057079;28;20454;-67
2023/04/01 12:56:57;;;;;;;5.10;0.60;;;11.70;27.10;;;;;;5065979;28;20459;-66
2023/04/01 12:59:43;;;;;;;4.97;1.50;;;11.70;26.10;;;;;;5067510;28;20472;-68
2023/04/01 13:02:15;;;;;;;4.10;1.00;;;11.70;26.70;;;;;;5062666;28;20473;-67
2023/04/01 13:05:25;;;;;;;4.57;1.03;;;11.70;26.70;;;;;;5069769;28;20485;-68
2023/04/01 13:08:05;;;;;;;4.03;0.97;;;11.80;27.20;;;;;;5068662;28;20502;-67
2023/04/01 13:10:49;;;;;;;4.73;1.37;;;11.80;26.40;;;;;;5065127;28;20527;-67
2023/04/01 13:13:48;;;;;;;3.97;0.77;;;11.70;26.00;;;;;;5068128;28;20569;-67
2023/04/01 13:16:20;;;;;;;4.30;1.13;;;11.70;26.60;;;;;;5050145;28;20457;-65
2023/04/01 13:18:56;;;;;;;5.57;2.27;;;11.70;27.20;;;;;;5062821;28;20465;-67
2023/04/01 13:21:34;;;;;;;4.37;1.50;;;11.60;27.40;;;;;;5054647;28;20472;-69
2023/04/01 13:24:09;;;;;;;4.23;0.80;;;11.60;27.60;;;;;;5060574;28;20457;-69
2023/04/01 13:26:46;;;;;;;3.50;0.70;;;11.60;27.90;;;;;;5063897;28;20457;-67
2023/04/01 13:29:16;;;;;;;6.10;1.70;;;11.60;26.80;;;;;;5068190;28;20461;-67
2023/04/01 13:31:56;;;;;;;5.40;2.23;;;11.60;27.10;;;;;;5061802;28;20492;-68
2023/04/01 13:34:39;;;;;;;5.93;2.47;;;11.50;27.20;;;;;;5064990;28;20472;-69
2023/04/01 13:37:28;;;;;;;7.97;3.47;;;11.40;27.30;;;;;;5063843;28;20469;-70
2023/04/01 13:40:24;;;;;;;6.83;2.77;;;11.40;28.00;;;;;;5061628;28;20469;-69
2023/04/01 13:42:58;;;;;;;4.80;2.00;;;11.40;28.00;;;;;;5057841;28;20487;-68
2023/04/01 13:45:30;;;;;;;4.43;1.43;;;11.30;27.80;;;;;;5054517;28;20454;-68
2023/04/01 13:48:28;;;;;;;4.27;1.20;;;11.30;28.00;;;;;;5061129;28;20493;-68
2023/04/01 13:51:12;;;;;;;4.17;1.13;;;11.30;28.10;;;;;;5062429;28;20481;-68